Time;durP1;ratioP1;P1;durP2;ratioP2;P2;SDS_P1;SDS_P2;PMS_P1;PMS_P2;Temp;Humidity;BMP_temperature;BMP_pressure;BME280_temperature;BME280_humidity;BME280_pressure;Samples;Min_cycle;Max_cycle;Signal;HPM_P1;HPM_P2
2021/08/03 00:00:28;;;;;;;;;;;;;;;13.92;100.00;95903.53;1041102;28;20394;-66
2021/08/03 00:01:00;;;;;;;;;;;;;;;13.91;100.00;95906.50;1037034;28;19964;-66
2021/08/03 00:01:31;;;;;;;;;;;;;;;13.91;100.00;95907.28;1037597;28;19914;-66
2021/08/03 00:02:02;;;;;;;;;;;;;;;13.91;100.00;95904.59;1041437;28;19909;-65
2021/08/03 00:02:32;;;;;;;;;;;;;;;13.92;100.00;95905.41;1045993;28;19928;-65
2021/08/03 00:03:06;;;;;;;;;;;;;;;13.90;100.00;95902.22;1053495;28;19958;-66
2021/08/03 00:03:39;;;;;;;;;;;;;;;13.87;100.00;95909.00;1049948;28;20429;-66
2021/08/03 00:04:11;;;;;;;;;;;;;;;13.86;100.00;95903.91;1053277;28;20429;-66
2021/08/03 00:04:42;;;;;;;;;;;;;;;13.87;100.00;95903.63;1049541;28;19919;-66
2021/08/03 00:05:15;;;;;;;;;;;;;;;13.86;100.00;95904.69;1046338;28;19923;-67
2021/08/03 00:05:47;;;;;;;;;;;;;;;13.82;100.00;95903.69;1050523;28;19958;-66
2021/08/03 00:06:18;;;;;;;;;;;;;;;13.85;100.00;95903.09;1049568;28;19924;-66
2021/08/03 00:06:51;;;;;;;;;;;;;;;13.84;100.00;95903.41;1053483;28;19930;-66
2021/08/03 00:07:22;;;;;;;;;;;;;;;13.83;100.00;95901.81;1053608;28;19917;-66
2021/08/03 00:07:56;;;;;;;;;;;;;;;13.79;100.00;95901.59;1045206;28;19908;-66
2021/08/03 00:08:27;;;;;;;;;;;;;;;13.80;100.00;95900.50;1040000;28;19917;-66
2021/08/03 00:08:58;;;;;;;;;;;;;;;13.80;100.00;95895.13;1037021;28;19920;-66
2021/08/03 00:09:28;;;;;;;;;;;;;;;13.81;100.00;95898.59;1037643;28;19913;-66
2021/08/03 00:09:58;;;;;;;;;;;;;;;13.82;100.00;95897.50;1045439;28;19919;-65
2021/08/03 00:10:29;;;;;;;;;;;;;;;13.78;100.00;95895.41;1049323;28;19923;-66
2021/08/03 00:11:01;;;;;;;;;;;;;;;13.81;100.00;95893.22;1049342;28;19908;-66
2021/08/03 00:11:32;;;;;;;;;;;;;;;13.82;100.00;95898.34;1048996;28;20040;-66
2021/08/03 00:12:02;;;;;;;;;;;;;;;13.83;100.00;95899.13;1049642;28;19916;-66
2021/08/03 00:12:32;;;;;;;;;;;;;;;13.80;100.00;95900.50;1053498;28;19912;-66
2021/08/03 00:13:02;;;;;;;;;;;;;;;13.82;100.00;95901.00;1045152;28;19999;-65
2021/08/03 00:13:33;;;;;;;;;;;;;;;13.83;100.00;95894.53;1041077;28;20326;-66
2021/08/03 00:14:04;;;;;;;;;;;;;;;13.85;100.00;95894.25;1040875;28;19996;-66
2021/08/03 00:14:34;;;;;;;;;;;;;;;13.82;100.00;95898.34;1041063;28;19913;-66
2021/08/03 00:15:05;;;;;;;;;;;;;;;13.83;100.00;95899.91;1048339;28;19982;-66
2021/08/03 00:15:35;;;;;;;;;;;;;;;13.84;100.00;95896.13;1049115;28;20458;-66
2021/08/03 00:16:09;;;;;;;;;;;;;;;13.82;100.00;95895.66;1049326;28;19948;-67
2021/08/03 00:16:40;;;;;;;;;;;;;;;13.82;100.00;95892.13;1045559;28;19913;-66
2021/08/03 00:17:11;;;;;;;;;;;;;;;13.78;100.00;95897.31;1049859;28;19987;-66
2021/08/03 00:17:41;;;;;;;;;;;;;;;13.75;100.00;95898.69;1048571;28;20007;-65
2021/08/03 00:18:11;;;;;;;;;;;;;;;13.78;100.00;95900.00;1045206;28;19986;-66
2021/08/03 00:18:42;;;;;;;;;;;;;;;13.78;100.00;95900.00;1049490;28;19935;-66
2021/08/03 00:19:12;;;;;;;;;;;;;;;13.79;100.00;95894.31;1049341;28;19915;-66
2021/08/03 00:19:42;;;;;;;;;;;;;;;13.77;100.00;95893.03;1049406;28;20416;-66
2021/08/03 00:20:13;;;;;;;;;;;;;;;13.77;100.00;95898.41;1040950;28;19913;-66
2021/08/03 00:20:43;;;;;;;;;;;;;;;13.78;100.00;95894.63;1036930;28;19940;-66
2021/08/03 00:21:13;;;;;;;;;;;;;;;13.77;100.00;95893.03;1045099;28;19912;-67
2021/08/03 00:21:43;;;;;;;;;;;;;;;13.78;100.00;95895.41;1045106;28;19963;-66
2021/08/03 00:22:14;;;;;;;;;;;;;;;13.78;100.00;95897.31;1045668;28;19913;-66
2021/08/03 00:22:44;;;;;;;;;;;;;;;13.77;100.00;95893.84;1045425;28;20354;-67
2021/08/03 00:23:14;;;;;;;;;;;;;;;13.78;100.00;95897.31;1037252;28;19913;-66
2021/08/03 00:23:45;;;;;;;;;;;;;;;13.76;100.00;95891.41;1041454;28;19909;-66
2021/08/03 00:24:16;;;;;;;;;;;;;;;13.74;100.00;95888.22;1041517;28;19914;-66
2021/08/03 00:24:46;;;;;;;;;;;;;;;13.74;100.00;95883.66;1041417;28;19914;-66
2021/08/03 00:25:17;;;;;;;;;;;;;;;13.75;100.00;95889.81;1026948;28;20029;-64
2021/08/03 00:25:48;;;;;;;;;;;;;;;13.75;100.00;95890.63;1033321;28;19925;-65
2021/08/03 00:26:18;;;;;;;;;;;;;;;13.76;100.00;95888.72;1037467;28;20336;-65
2021/08/03 00:26:49;;;;;;;;;;;;;;;13.75;100.00;95900.56;1037599;28;19918;-65
2021/08/03 00:27:19;;;;;;;;;;;;;;;13.75;100.00;95893.31;1037393;28;19909;-66
2021/08/03 00:27:49;;;;;;;;;;;;;;;13.73;100.00;95890.13;1037861;28;19918;-65
2021/08/03 00:28:20;;;;;;;;;;;;;;;13.76;100.00;95892.22;1041524;28;19954;-66
2021/08/03 00:28:50;;;;;;;;;;;;;;;13.76;100.00;95886.84;1045526;28;19920;-65
2021/08/03 00:29:20;;;;;;;;;;;;;;;13.73;100.00;95892.03;1049252;28;19904;-66
2021/08/03 00:29:51;;;;;;;;;;;;;;;13.72;100.00;95887.75;1049417;28;19920;-65
2021/08/03 00:30:24;;;;;;;;;;;;;;;13.72;100.00;95890.44;1049204;28;19905;-67
2021/08/03 00:30:54;;;;;;;;;;;;;;;13.72;100.00;95891.22;1049133;28;19908;-66
2021/08/03 00:31:25;;;;;;;;;;;;;;;13.73;100.00;95895.50;1048785;28;19905;-66
2021/08/03 00:31:55;;;;;;;;;;;;;;;13.73;100.00;95897.38;1045113;28;19920;-66
2021/08/03 00:32:26;;;;;;;;;;;;;;;13.71;100.00;95889.59;1045063;28;20398;-66
2021/08/03 00:32:56;;;;;;;;;;;;;;;13.69;100.00;95889.09;1045174;28;19952;-66
2021/08/03 00:33:26;;;;;;;;;;;;;;;13.72;100.00;95882.38;1040869;28;19909;-66
2021/08/03 00:33:56;;;;;;;;;;;;;;;13.70;100.00;95892.59;1041154;28;19964;-66
2021/08/03 00:34:27;;;;;;;;;;;;;;;13.69;100.00;95893.69;1040993;28;20273;-66
2021/08/03 00:34:57;;;;;;;;;;;;;;;13.67;100.00;95890.50;1036833;28;19914;-66
2021/08/03 00:35:27;;;;;;;;;;;;;;;13.67;100.00;95887.81;1036463;28;19925;-66
2021/08/03 00:35:58;;;;;;;;;;;;;;;13.65;100.00;95885.41;1032942;28;19953;-66
2021/08/03 00:36:31;;;;;;;;;;;;;;;13.67;100.00;95887.81;1045275;28;19916;-67
2021/08/03 00:37:01;;;;;;;;;;;;;;;13.64;100.00;95885.69;1045784;28;19952;-66
2021/08/03 00:37:31;;;;;;;;;;;;;;;13.66;100.00;95881.63;1049250;28;19912;-67
2021/08/03 00:38:01;;;;;;;;;;;;;;;13.65;100.00;95885.41;1049316;28;20367;-66
2021/08/03 00:38:32;;;;;;;;;;;;;;;13.66;100.00;95884.31;1045195;28;19909;-66
2021/08/03 00:39:02;;;;;;;;;;;;;;;13.63;100.00;95882.22;1041093;28;19909;-66
2021/08/03 00:39:32;;;;;;;;;;;;;;;13.65;100.00;95887.28;1045237;28;20385;-66
2021/08/03 00:40:04;;;;;;;;;;;;;;;13.66;100.00;95881.63;1049334;28;19912;-66
2021/08/03 00:40:36;;;;;;;;;;;;;;;13.65;100.00;95881.94;1045558;28;19919;-66
2021/08/03 00:41:08;;;;;;;;;;;;;;;13.65;100.00;95882.72;1045262;28;19920;-66
2021/08/03 00:41:42;;;;;;;;;;;;;;;13.64;100.00;95880.34;1037288;28;19996;-66
2021/08/03 00:42:12;;;;;;;;;;;;;;;13.62;100.00;95885.22;1038129;28;19939;-66
2021/08/03 00:42:43;;;;;;;;;;;;;;;13.62;100.00;95880.63;1042119;28;19920;-66
2021/08/03 00:43:13;;;;;;;;;;;;;;;13.62;100.00;95877.94;1042205;28;19913;-66
2021/08/03 00:43:43;;;;;;;;;;;;;;;13.59;100.00;95885.78;1041895;28;19971;-66
2021/08/03 00:44:13;;;;;;;;;;;;;;;13.60;100.00;95890.06;1042506;28;19931;-66
2021/08/03 00:44:47;;;;;;;;;;;;;;;13.59;100.00;95885.78;1042633;28;19918;-67
2021/08/03 00:45:18;;;;;;;;;;;;;;;13.58;100.00;95882.31;1050405;28;19936;-66
2021/08/03 00:45:48;;;;;;;;;;;;;;;13.56;100.00;95884.47;1046116;28;19915;-67
2021/08/03 00:46:18;;;;;;;;;;;;;;;13.57;100.00;95883.41;1047623;28;19909;-67
2021/08/03 00:46:49;;;;;;;;;;;;;;;13.58;100.00;95885.00;1055459;28;19904;-67
2021/08/03 00:47:19;;;;;;;;;;;;;;;13.60;100.00;95887.38;1046857;28;19909;-66
2021/08/03 00:47:49;;;;;;;;;;;;;;;13.61;100.00;95888.97;1047730;28;19927;-68
2021/08/03 00:48:19;;;;;;;;;;;;;;;13.61;100.00;95880.91;1046579;28;19912;-66
2021/08/03 00:48:50;;;;;;;;;;;;;;;13.63;100.00;95886.81;1043759;28;19989;-66
2021/08/03 00:49:20;;;;;;;;;;;;;;;13.62;100.00;95882.53;1054748;28;19963;-67
2021/08/03 00:49:50;;;;;;;;;;;;;;;13.63;100.00;95890.28;1055629;28;19965;-67
2021/08/03 00:50:21;;;;;;;;;;;;;;;13.60;100.00;95888.16;1055322;28;19946;-67
2021/08/03 00:50:51;;;;;;;;;;;;;;;13.58;100.00;95882.31;1055738;28;20371;-70
2021/08/03 00:51:21;;;;;;;;;;;;;;;13.60;100.00;95879.31;1055674;28;19904;-67
2021/08/03 00:51:52;;;;;;;;;;;;;;;13.61;100.00;95883.59;1055780;28;19904;-67
2021/08/03 00:52:22;;;;;;;;;;;;;;;13.62;100.00;95888.69;1055693;28;19942;-66
2021/08/03 00:52:52;;;;;;;;;;;;;;;13.60;100.00;95890.06;1054659;28;19904;-68
2021/08/03 00:53:23;;;;;;;;;;;;;;;13.60;100.00;95890.84;1050634;28;19997;-67
2021/08/03 00:53:53;;;;;;;;;;;;;;;13.57;100.00;95896.81;1050712;28;19908;-66
2021/08/03 00:54:23;;;;;;;;;;;;;;;13.56;100.00;95884.47;1050974;28;20485;-67
2021/08/03 00:54:54;;;;;;;;;;;;;;;13.56;100.00;95886.34;1050829;28;19904;-67
2021/08/03 00:55:24;;;;;;;;;;;;;;;13.56;100.00;95887.16;1055707;28;19927;-67
2021/08/03 00:55:54;;;;;;;;;;;;;;;13.56;100.00;95881.78;1055014;28;19908;-67
2021/08/03 00:56:25;;;;;;;;;;;;;;;13.53;100.00;95885.06;1051309;28;19913;-67
2021/08/03 00:56:55;;;;;;;;;;;;;;;13.53;100.00;95885.84;1054481;28;20013;-67
2021/08/03 00:57:26;;;;;;;;;;;;;;;13.49;100.00;95879.47;1055360;28;19908;-66
2021/08/03 00:57:56;;;;;;;;;;;;;;;13.47;100.00;95887.03;1055589;28;19905;-67
2021/08/03 00:58:27;;;;;;;;;;;;;;;13.49;100.00;95884.03;1054698;28;19908;-67
2021/08/03 00:58:57;;;;;;;;;;;;;;;13.49;100.00;95882.16;1050192;28;19908;-67
2021/08/03 00:59:27;;;;;;;;;;;;;;;13.50;100.00;95885.63;1051325;28;19908;-67
2021/08/03 00:59:57;;;;;;;;;;;;;;;13.51;100.00;95889.91;1050523;28;19908;-67
2021/08/03 01:00:28;;;;;;;;;;;;;;;13.49;100.00;95884.03;1054984;28;19904;-67
2021/08/03 01:00:58;;;;;;;;;;;;;;;13.49;100.00;95884.03;1055881;28;19904;-67
2021/08/03 01:01:28;;;;;;;;;;;;;;;13.47;100.00;95880.84;1051592;28;19905;-66
2021/08/03 01:01:58;;;;;;;;;;;;;;;13.47;100.00;95884.34;1049588;28;20368;-67
2021/08/03 01:02:29;;;;;;;;;;;;;;;13.48;100.00;95883.25;1049780;28;19970;-66
2021/08/03 01:02:59;;;;;;;;;;;;;;;13.45;100.00;95888.38;1049827;28;19962;-66
2021/08/03 01:03:29;;;;;;;;;;;;;;;13.41;100.00;95893.56;1054346;28;19912;-66
2021/08/03 01:04:00;;;;;;;;;;;;;;;13.43;100.00;95886.00;1054166;28;19968;-66
2021/08/03 01:04:30;;;;;;;;;;;;;;;13.45;100.00;95886.50;1054177;28;19915;-66
2021/08/03 01:05:00;;;;;;;;;;;;;;;13.43;100.00;95877.16;1054230;28;19908;-66
2021/08/03 01:05:33;;;;;;;;;;;;;;;13.44;100.00;95881.44;1054149;28;20379;-67
2021/08/03 01:06:05;;;;;;;;;;;;;;;13.43;100.00;95880.63;1050082;28;19913;-67
2021/08/03 01:06:50;;;;;;;;;;;;;;;13.42;100.00;95887.09;1045476;28;19952;-66
2021/08/03 01:07:22;;;;;;;;;;;;;;;13.43;100.00;95885.22;1049155;28;19908;-66
2021/08/03 01:08:18;;;;;;;;;;;;;;;13.43;100.00;95880.63;1045133;28;19917;-66
2021/08/03 01:09:09;;;;;;;;;;;;;;;13.45;100.00;95878.44;1046175;28;19920;-66
2021/08/03 01:09:45;;;;;;;;;;;;;;;13.42;100.00;95884.41;1042619;28;20353;-66
2021/08/03 01:10:30;;;;;;;;;;;;;;;13.44;100.00;95876.06;1046877;28;19909;-67
2021/08/03 01:11:03;;;;;;;;;;;;;;;13.42;100.00;95880.94;1049569;28;19916;-66
2021/08/03 01:11:46;;;;;;;;;;;;;;;13.42;100.00;95883.63;1050470;28;19950;-67
2021/08/03 01:12:23;;;;;;;;;;;;;;;13.36;100.00;95880.22;1045893;28;20014;-67
2021/08/03 01:12:58;;;;;;;;;;;;;;;13.35;100.00;95886.63;1041717;28;19917;-67
2021/08/03 01:13:46;;;;;;;;;;;;;;;13.35;100.00;95886.63;1041673;28;19944;-67
2021/08/03 01:14:18;;;;;;;;;;;;;;;13.37;100.00;95891.75;1048917;28;20345;-66
2021/08/03 01:14:48;;;;;;;;;;;;;;;13.33;100.00;95890.72;1052621;28;19908;-66
2021/08/03 01:15:20;;;;;;;;;;;;;;;13.32;100.00;95886.44;1053557;28;19908;-67
2021/08/03 01:15:53;;;;;;;;;;;;;;;13.34;100.00;95882.38;1053661;28;20301;-66
2021/08/03 01:16:26;;;;;;;;;;;;;;;13.35;100.00;95891.22;1054807;28;19938;-67
2021/08/03 01:16:56;;;;;;;;;;;;;;;13.34;100.00;95893.09;1054388;28;19916;-66
2021/08/03 01:17:30;;;;;;;;;;;;;;;13.36;100.00;95893.63;1053899;28;19908;-66
2021/08/03 01:18:04;;;;;;;;;;;;;;;13.36;100.00;95893.63;1049396;28;20293;-67
2021/08/03 01:18:35;;;;;;;;;;;;;;;13.40;100.00;95880.41;1045243;28;19944;-66
2021/08/03 01:19:42;;;;;;;;;;;;;;;13.40;100.00;95894.63;1045178;28;19923;-66
2021/08/03 01:20:29;;;;;;;;;;;;;;;13.40;100.00;95886.56;1040915;28;20301;-65
2021/08/03 01:21:05;;;;;;;;;;;;;;;13.34;100.00;95895.78;1040891;28;20367;-67
2021/08/03 01:21:38;;;;;;;;;;;;;;;13.36;100.00;95890.94;1037032;28;19906;-67
2021/08/03 01:22:32;;;;;;;;;;;;;;;13.37;100.00;95891.75;1036710;28;20284;-66
2021/08/03 01:23:08;;;;;;;;;;;;;;;13.39;100.00;95895.72;1031218;28;20052;-67
2021/08/03 01:23:57;;;;;;;;;;;;;;;13.38;100.00;95886.06;1033039;28;19913;-67
2021/08/03 01:24:45;;;;;;;;;;;;;;;13.41;100.00;95885.50;1045296;28;20397;-66
2021/08/03 01:25:17;;;;;;;;;;;;;;;13.42;100.00;95891.66;1045984;28;19920;-66
2021/08/03 01:26:06;;;;;;;;;;;;;;;13.41;100.00;95888.19;1049559;28;20046;-66
2021/08/03 01:26:54;;;;;;;;;;;;;;;13.40;100.00;95894.63;1049333;28;19918;-65
2021/08/03 01:27:27;;;;;;;;;;;;;;;13.40;100.00;95886.56;1044908;28;20436;-65
2021/08/03 01:28:15;;;;;;;;;;;;;;;13.38;100.00;95894.13;1044828;28;20014;-66
2021/08/03 01:28:46;;;;;;;;;;;;;;;13.36;100.00;95892.81;1044854;28;19913;-65
2021/08/03 01:29:17;;;;;;;;;;;;;;;13.32;100.00;95894.50;1047640;28;19908;-71
2021/08/03 01:29:50;;;;;;;;;;;;;;;13.30;100.00;95889.41;1044884;28;20003;-65
2021/08/03 01:30:21;;;;;;;;;;;;;;;13.29;100.00;95895.84;1040791;28;20020;-65
2021/08/03 01:30:59;;;;;;;;;;;;;;;13.29;100.00;95890.47;1040812;28;20374;-66
2021/08/03 01:31:30;;;;;;;;;;;;;;;13.26;100.00;95891.88;1037987;28;19947;-65
2021/08/03 01:32:02;;;;;;;;;;;;;;;13.23;100.00;95895.13;1042208;28;19963;-65
2021/08/03 01:32:33;;;;;;;;;;;;;;;13.23;100.00;95892.44;1048580;28;20016;-65
2021/08/03 01:33:03;;;;;;;;;;;;;;;13.20;100.00;95894.88;1049492;28;20241;-66
2021/08/03 01:33:34;;;;;;;;;;;;;;;13.23;100.00;95895.13;1053488;28;19912;-66
2021/08/03 01:34:06;;;;;;;;;;;;;;;13.23;100.00;95894.34;1053592;28;19940;-66
2021/08/03 01:34:37;;;;;;;;;;;;;;;13.19;100.00;95887.91;1049031;28;20040;-66
2021/08/03 01:35:07;;;;;;;;;;;;;;;13.18;100.00;95894.38;1048755;28;20365;-66
2021/08/03 01:35:38;;;;;;;;;;;;;;;13.21;100.00;95893.81;1049041;28;20327;-65
2021/08/03 01:36:09;;;;;;;;;;;;;;;13.17;100.00;95888.22;1045164;28;19917;-66
2021/08/03 01:36:40;;;;;;;;;;;;;;;13.17;100.00;95887.41;1044872;28;20289;-65
2021/08/03 01:37:10;;;;;;;;;;;;;;;13.19;100.00;95891.38;1044924;28;19913;-65
2021/08/03 01:37:40;;;;;;;;;;;;;;;13.20;100.00;95884.94;1040818;28;20282;-65
2021/08/03 01:38:11;;;;;;;;;;;;;;;13.22;100.00;95884.69;1045003;28;20408;-65
2021/08/03 01:38:41;;;;;;;;;;;;;;;13.16;100.00;95883.94;1048965;28;19908;-65
2021/08/03 01:39:12;;;;;;;;;;;;;;;13.18;100.00;95889.78;1044848;28;19912;-65
2021/08/03 01:39:44;;;;;;;;;;;;;;;13.16;100.00;95886.63;1044798;28;19955;-65
2021/08/03 01:40:14;;;;;;;;;;;;;;;13.14;100.00;95886.09;1049008;28;19916;-65
2021/08/03 01:40:45;;;;;;;;;;;;;;;13.15;100.00;95884.19;1044809;28;20390;-66
2021/08/03 01:41:16;;;;;;;;;;;;;;;13.14;100.00;95886.09;1044735;28;19913;-66
2021/08/03 01:41:48;;;;;;;;;;;;;;;13.15;100.00;95890.34;1040884;28;20433;-65
2021/08/03 01:42:18;;;;;;;;;;;;;;;13.16;100.00;95886.63;1040243;28;19959;-66
2021/08/03 01:42:49;;;;;;;;;;;;;;;13.16;100.00;95886.63;1041006;28;20360;-65
2021/08/03 01:43:19;;;;;;;;;;;;;;;13.17;100.00;95885.53;1040891;28;19948;-66
2021/08/03 01:43:50;;;;;;;;;;;;;;;13.16;100.00;95889.31;1048854;28;19947;-66
2021/08/03 01:44:20;;;;;;;;;;;;;;;13.15;100.00;95887.69;1048863;28;19932;-66
2021/08/03 01:44:52;;;;;;;;;;;;;;;13.08;100.00;95884.56;1048948;28;19990;-65
2021/08/03 01:45:22;;;;;;;;;;;;;;;13.07;100.00;95882.19;1052929;28;19951;-66
2021/08/03 01:45:54;;;;;;;;;;;;;;;13.08;100.00;95881.88;1048930;28;19938;-65
2021/08/03 01:46:25;;;;;;;;;;;;;;;13.08;100.00;95881.88;1048866;28;19916;-66
2021/08/03 01:46:55;;;;;;;;;;;;;;;13.08;100.00;95889.94;1048953;28;19916;-65
2021/08/03 01:47:25;;;;;;;;;;;;;;;13.10;100.00;95886.94;1048784;28;19916;-66
2021/08/03 01:47:56;;;;;;;;;;;;;;;13.11;100.00;95883.19;1048846;28;19908;-66
2021/08/03 01:48:26;;;;;;;;;;;;;;;13.11;100.00;95880.53;1048820;28;20373;-65
2021/08/03 01:48:57;;;;;;;;;;;;;;;13.12;100.00;95887.47;1048842;28;19913;-65
2021/08/03 01:49:27;;;;;;;;;;;;;;;13.11;100.00;95886.69;1052943;28;20365;-66
2021/08/03 01:49:58;;;;;;;;;;;;;;;13.09;100.00;95888.03;1053046;28;19912;-65
2021/08/03 01:50:28;;;;;;;;;;;;;;;13.07;100.00;95882.97;1048720;28;19908;-66
2021/08/03 01:50:59;;;;;;;;;;;;;;;13.11;100.00;95886.69;1048671;28;19913;-66
2021/08/03 01:51:29;;;;;;;;;;;;;;;13.16;100.00;95883.94;1053090;28;19923;-65
2021/08/03 01:51:59;;;;;;;;;;;;;;;13.11;100.00;95885.88;1049050;28;19912;-66
2021/08/03 01:52:30;;;;;;;;;;;;;;;13.12;100.00;95882.13;1050791;28;19948;-66
2021/08/03 01:53:01;;;;;;;;;;;;;;;13.12;100.00;95884.78;1048807;28;19963;-65
2021/08/03 01:53:31;;;;;;;;;;;;;;;13.11;100.00;95884.00;1048937;28;19912;-66
2021/08/03 01:54:01;;;;;;;;;;;;;;;13.11;100.00;95877.84;1052993;28;20325;-66
2021/08/03 01:54:31;;;;;;;;;;;;;;;13.11;100.00;95877.84;1048836;28;19952;-65
2021/08/03 01:55:02;;;;;;;;;;;;;;;13.07;100.00;95882.97;1048852;28;19909;-66
2021/08/03 01:55:32;;;;;;;;;;;;;;;13.02;100.00;95878.47;1044711;28;20079;-65
2021/08/03 01:56:03;;;;;;;;;;;;;;;13.01;100.00;95876.09;1044736;28;19913;-65
2021/08/03 01:56:33;;;;;;;;;;;;;;;13.01;100.00;95878.75;1044732;28;20372;-66
2021/08/03 01:57:03;;;;;;;;;;;;;;;13.01;100.00;95873.41;1048744;28;19905;-65
2021/08/03 01:57:34;;;;;;;;;;;;;;;12.98;100.00;95873.97;1048832;28;20424;-66
2021/08/03 01:58:04;;;;;;;;;;;;;;;12.98;100.00;95866.72;1048825;28;19948;-66
2021/08/03 01:58:36;;;;;;;;;;;;;;;12.99;100.00;95865.63;1048813;28;19912;-66
2021/08/03 01:59:06;;;;;;;;;;;;;;;12.99;100.00;95865.63;1044668;28;19912;-66
2021/08/03 01:59:36;;;;;;;;;;;;;;;13.01;100.00;95865.34;1044721;28;19966;-65
2021/08/03 02:00:07;;;;;;;;;;;;;;;13.02;100.00;95865.06;1048843;28;19912;-65
2021/08/03 02:00:37;;;;;;;;;;;;;;;12.98;100.00;95863.22;1052753;28;19919;-65
2021/08/03 02:01:08;;;;;;;;;;;;;;;12.98;100.00;95866.72;1052488;28;19942;-66
2021/08/03 02:01:38;;;;;;;;;;;;;;;12.99;100.00;95860.25;1052715;28;20434;-65
2021/08/03 02:02:09;;;;;;;;;;;;;;;13.04;100.00;95861.28;1053088;28;20011;-65
2021/08/03 02:02:39;;;;;;;;;;;;;;;13.01;100.00;95868.81;1055502;28;19996;-66
2021/08/03 02:03:10;;;;;;;;;;;;;;;13.04;100.00;95869.31;1057230;28;19915;-65
2021/08/03 02:03:40;;;;;;;;;;;;;;;13.06;100.00;95875.22;1052927;28;19912;-65
2021/08/03 02:04:10;;;;;;;;;;;;;;;13.07;100.00;95874.91;1048723;28;19912;-66
2021/08/03 02:04:41;;;;;;;;;;;;;;;13.09;100.00;95871.94;1048798;28;19957;-65
2021/08/03 02:05:11;;;;;;;;;;;;;;;13.05;100.00;95870.91;1044570;28;20393;-66
2021/08/03 02:05:42;;;;;;;;;;;;;;;13.08;100.00;95873.84;1044736;28;20098;-66
2021/08/03 02:06:12;;;;;;;;;;;;;;;13.09;100.00;95874.63;1044561;28;19935;-65
2021/08/03 02:06:42;;;;;;;;;;;;;;;13.10;100.00;95870.84;1040592;28;20000;-66
2021/08/03 02:07:15;;;;;;;;;;;;;;;13.09;100.00;95870.06;1048837;28;19969;-65
2021/08/03 02:07:46;;;;;;;;;;;;;;;13.08;100.00;95871.16;1052917;28;19915;-65
2021/08/03 02:08:16;;;;;;;;;;;;;;;13.06;100.00;95859.13;1049145;28;20329;-66
2021/08/03 02:08:48;;;;;;;;;;;;;;;13.08;100.00;95870.34;1052982;28;19916;-65
2021/08/03 02:09:18;;;;;;;;;;;;;;;13.06;100.00;95872.53;1052725;28;19912;-65
2021/08/03 02:09:49;;;;;;;;;;;;;;;13.06;100.00;95864.50;1048428;28;19963;-65
2021/08/03 02:10:19;;;;;;;;;;;;;;;13.03;100.00;95868.53;1044863;28;19913;-66
2021/08/03 02:10:50;;;;;;;;;;;;;;;13.05;100.00;95870.91;1052973;28;20015;-65
2021/08/03 02:11:29;;;;;;;;;;;;;;;13.05;100.00;95865.56;1048784;28;19990;-66
2021/08/03 02:12:00;;;;;;;;;;;;;;;12.97;100.00;95865.13;1053026;28;20376;-66
2021/08/03 02:12:31;;;;;;;;;;;;;;;12.98;100.00;95863.22;1049965;28;19918;-66
2021/08/03 02:13:01;;;;;;;;;;;;;;;12.98;100.00;95864.03;1044655;28;19917;-65
2021/08/03 02:13:32;;;;;;;;;;;;;;;12.98;100.00;95864.03;1044964;28;19913;-66
2021/08/03 02:14:02;;;;;;;;;;;;;;;12.94;100.00;95867.56;1044963;28;19924;-65
2021/08/03 02:14:33;;;;;;;;;;;;;;;12.95;100.00;95858.47;1044922;28;19913;-65
2021/08/03 02:15:03;;;;;;;;;;;;;;;12.97;100.00;95859.75;1048773;28;20329;-65
2021/08/03 02:15:34;;;;;;;;;;;;;;;12.96;100.00;95855.47;1048741;28;19916;-65
2021/08/03 02:16:04;;;;;;;;;;;;;;;12.98;100.00;95865.91;1044619;28;19917;-65
2021/08/03 02:16:35;;;;;;;;;;;;;;;12.94;100.00;95862.19;1044590;28;20348;-66
2021/08/03 02:17:05;;;;;;;;;;;;;;;12.88;100.00;95858.78;1044510;28;19916;-65
2021/08/03 02:17:35;;;;;;;;;;;;;;;12.91;100.00;95863.59;1044686;28;19913;-66
2021/08/03 02:18:06;;;;;;;;;;;;;;;12.91;100.00;95866.28;1044560;28;20015;-65
2021/08/03 02:18:36;;;;;;;;;;;;;;;12.93;100.00;95860.59;1044642;28;19959;-66
2021/08/03 02:19:07;;;;;;;;;;;;;;;12.93;100.00;95865.97;1040540;28;19918;-65
2021/08/03 02:19:37;;;;;;;;;;;;;;;12.92;100.00;95865.19;1040550;28;19921;-65
2021/08/03 02:20:07;;;;;;;;;;;;;;;12.91;100.00;95862.78;1044627;28;19916;-66
2021/08/03 02:20:38;;;;;;;;;;;;;;;12.92;100.00;95869.75;1044906;28;20266;-65
2021/08/03 02:21:09;;;;;;;;;;;;;;;12.87;100.00;95861.78;1044982;28;19919;-66
2021/08/03 02:21:41;;;;;;;;;;;;;;;12.83;100.00;95861.53;1044840;28;19927;-66
2021/08/03 02:22:12;;;;;;;;;;;;;;;12.82;100.00;95865.31;1044915;28;19936;-66
2021/08/03 02:22:43;;;;;;;;;;;;;;;12.81;100.00;95861.03;1047826;28;19951;-66
2021/08/03 02:23:14;;;;;;;;;;;;;;;12.82;100.00;95861.81;1049081;28;20450;-65
2021/08/03 02:23:44;;;;;;;;;;;;;;;12.81;100.00;95861.03;1049009;28;19982;-65
2021/08/03 02:24:14;;;;;;;;;;;;;;;12.80;100.00;95861.31;1048967;28;19913;-65
2021/08/03 02:24:45;;;;;;;;;;;;;;;12.79;100.00;95860.50;1048954;28;20346;-65
2021/08/03 02:25:15;;;;;;;;;;;;;;;12.80;100.00;95862.13;1048907;28;20003;-65
2021/08/03 02:25:45;;;;;;;;;;;;;;;12.81;100.00;95863.72;1048884;28;19908;-65
2021/08/03 02:26:16;;;;;;;;;;;;;;;12.80;100.00;95864.00;1048913;28;20272;-65
2021/08/03 02:26:46;;;;;;;;;;;;;;;12.78;100.00;95863.47;1048970;28;20357;-66
2021/08/03 02:27:16;;;;;;;;;;;;;;;12.78;100.00;95861.59;1049015;28;19908;-65
2021/08/03 02:27:46;;;;;;;;;;;;;;;12.76;100.00;95861.09;1048824;28;19916;-66
2021/08/03 02:28:17;;;;;;;;;;;;;;;12.78;100.00;95858.13;1048868;28;20258;-65
2021/08/03 02:28:47;;;;;;;;;;;;;;;12.78;100.00;95864.28;1048974;28;19936;-66
2021/08/03 02:29:17;;;;;;;;;;;;;;;12.77;100.00;95862.69;1048931;28;19938;-65
2021/08/03 02:29:47;;;;;;;;;;;;;;;12.75;100.00;95862.19;1048949;28;19904;-66
2021/08/03 02:30:18;;;;;;;;;;;;;;;12.75;100.00;95865.66;1048598;28;19908;-66
2021/08/03 02:30:49;;;;;;;;;;;;;;;12.73;100.00;95859.78;1048627;28;19920;-65
2021/08/03 02:31:28;;;;;;;;;;;;;;;12.72;100.00;95860.06;1048680;28;19908;-65
2021/08/03 02:32:00;;;;;;;;;;;;;;;12.75;100.00;95852.25;1048615;28;19909;-65
2021/08/03 02:32:32;;;;;;;;;;;;;;;12.75;100.00;95849.56;1045729;28;19909;-65
2021/08/03 02:33:08;;;;;;;;;;;;;;;12.77;100.00;95851.16;1052859;28;20276;-65
2021/08/03 02:33:40;;;;;;;;;;;;;;;12.77;100.00;95843.91;1052834;28;20257;-66
2021/08/03 02:34:21;;;;;;;;;;;;;;;12.80;100.00;95848.72;1049876;28;19916;-66
2021/08/03 02:34:57;;;;;;;;;;;;;;;12.80;100.00;95850.59;1046200;28;20006;-65
2021/08/03 02:35:55;;;;;;;;;;;;;;;12.83;100.00;95853.50;1040327;28;19921;-66
2021/08/03 02:36:27;;;;;;;;;;;;;;;12.82;100.00;95854.56;1042268;28;20392;-65
2021/08/03 02:36:58;;;;;;;;;;;;;;;12.82;100.00;95851.91;1048699;28;19920;-65
2021/08/03 02:37:30;;;;;;;;;;;;;;;12.82;100.00;95846.53;1057067;28;19931;-66
2021/08/03 02:38:02;;;;;;;;;;;;;;;12.80;100.00;95846.03;1056898;28;20230;-65
2021/08/03 02:38:32;;;;;;;;;;;;;;;12.83;100.00;95841.97;1056086;28;20330;-65
2021/08/03 02:39:03;;;;;;;;;;;;;;;12.80;100.00;95853.28;1048594;28;19916;-65
2021/08/03 02:39:33;;;;;;;;;;;;;;;12.82;100.00;95848.41;1048660;28;20265;-65
2021/08/03 02:40:04;;;;;;;;;;;;;;;12.82;100.00;95846.53;1048564;28;19955;-65
2021/08/03 02:40:35;;;;;;;;;;;;;;;12.81;100.00;95849.50;1048675;28;19912;-65
2021/08/03 02:41:05;;;;;;;;;;;;;;;12.78;100.00;95842.81;1048587;28;20323;-65
2021/08/03 02:41:36;;;;;;;;;;;;;;;12.80;100.00;95851.41;1048594;28;19913;-65
2021/08/03 02:42:07;;;;;;;;;;;;;;;12.77;100.00;95848.47;1048436;28;20270;-65
2021/08/03 02:42:37;;;;;;;;;;;;;;;12.78;100.00;95848.19;1048321;28;19916;-65
2021/08/03 02:43:07;;;;;;;;;;;;;;;12.80;100.00;95855.97;1048365;28;19924;-65
2021/08/03 02:43:38;;;;;;;;;;;;;;;12.80;100.00;95843.34;1048603;28;19958;-66
2021/08/03 02:44:08;;;;;;;;;;;;;;;12.81;100.00;95857.56;1044377;28;19932;-65